Time;durP1;ratioP1;P1;durP2;ratioP2;P2;SDS_P1;SDS_P2;PMS_P1;PMS_P2;Temp;Humidity;BMP_temperature;BMP_pressure;BME280_temperature;BME280_humidity;BME280_pressure;Samples;Min_cycle;Max_cycle;Signal;HPM_P1;HPM_P2
2024/02/26 00:01:43;;;;;;;5.57;3.35;;;4.30;99.90;;;;;;5014941;28;20517;-77
2024/02/26 00:04:10;;;;;;;10.73;3.85;;;4.30;99.90;;;;;;5019396;28;20112;-78
2024/02/26 00:06:36;;;;;;;6.35;3.63;;;4.30;99.90;;;;;;5014044;28;20064;-77
2024/02/26 00:09:05;;;;;;;6.55;3.35;;;4.30;99.90;;;;;;5014289;28;20407;-78
2024/02/26 00:11:31;;;;;;;6.63;3.33;;;4.30;99.90;;;;;;5017042;28;20489;-77
2024/02/26 00:13:58;;;;;;;5.50;3.42;;;4.20;99.90;;;;;;5011007;28;20030;-77
2024/02/26 00:16:24;;;;;;;6.15;3.08;;;4.20;99.90;;;;;;5017377;28;20044;-77
2024/02/26 00:18:50;;;;;;;5.63;3.05;;;4.00;99.90;;;;;;5012462;28;20024;-77
2024/02/26 00:21:16;;;;;;;5.47;3.58;;;4.00;99.90;;;;;;5013347;28;20805;-78
2024/02/26 00:23:41;;;;;;;9.55;3.58;;;3.90;99.90;;;;;;5014514;28;20535;-77
2024/02/26 00:26:07;;;;;;;5.03;2.80;;;3.90;99.90;;;;;;5014358;28;20057;-77
2024/02/26 00:28:34;;;;;;;4.53;3.08;;;3.80;99.90;;;;;;5016822;28;20033;-77
2024/02/26 00:30:59;;;;;;;6.25;3.10;;;3.80;99.90;;;;;;5012202;28;20032;-77
2024/02/26 00:33:25;;;;;;;7.38;2.97;;;3.80;99.90;;;;;;5017197;28;20029;-78
2024/02/26 00:35:51;;;;;;;5.40;3.17;;;3.80;99.90;;;;;;5009250;28;20029;-78
2024/02/26 00:38:17;;;;;;;7.60;3.28;;;3.70;99.90;;;;;;5018528;28;20033;-78
2024/02/26 00:40:43;;;;;;;5.68;3.10;;;3.70;99.90;;;;;;5020147;28;20073;-77
2024/02/26 00:43:09;;;;;;;5.30;2.65;;;3.70;99.90;;;;;;5016498;28;20595;-77
2024/02/26 00:45:35;;;;;;;4.63;2.70;;;3.60;99.90;;;;;;5016001;28;20217;-77
2024/02/26 00:48:04;;;;;;;4.55;2.63;;;3.60;99.90;;;;;;5012617;28;20034;-77
2024/02/26 00:50:33;;;;;;;3.42;2.75;;;3.60;99.90;;;;;;5008751;28;20116;-77
2024/02/26 00:53:00;;;;;;;5.05;2.72;;;3.60;99.90;;;;;;5011589;28;20030;-77
2024/02/26 00:55:26;;;;;;;4.88;3.03;;;3.60;99.90;;;;;;5013723;28;20057;-78
2024/02/26 00:57:52;;;;;;;4.78;3.00;;;3.60;99.90;;;;;;5014094;28;20436;-78
2024/02/26 01:00:18;;;;;;;3.88;2.97;;;3.50;99.90;;;;;;5019317;28;20040;-77
2024/02/26 01:02:46;;;;;;;4.65;2.65;;;3.50;99.90;;;;;;5013703;28;20032;-78
2024/02/26 01:05:13;;;;;;;3.78;2.83;;;3.40;99.90;;;;;;5014337;28;20107;-78
2024/02/26 01:07:39;;;;;;;4.30;2.67;;;3.40;99.90;;;;;;5010975;28;20040;-77
2024/02/26 01:10:06;;;;;;;4.55;2.95;;;3.30;99.90;;;;;;5016494;28;20036;-78
2024/02/26 01:12:34;;;;;;;3.60;2.90;;;3.30;99.90;;;;;;5016518;28;20029;-77
2024/02/26 01:15:00;;;;;;;5.97;2.65;;;3.20;99.90;;;;;;5021997;28;20033;-77
2024/02/26 01:17:26;;;;;;;5.75;3.20;;;3.20;99.90;;;;;;5012635;28;20036;-78
2024/02/26 01:19:53;;;;;;;3.78;2.67;;;3.10;99.90;;;;;;5017397;28;20457;-77
2024/02/26 01:22:19;;;;;;;3.60;2.53;;;3.10;99.90;;;;;;5018264;28;20029;-77
2024/02/26 01:24:45;;;;;;;6.63;3.60;;;3.10;99.90;;;;;;5016874;28;20521;-77
2024/02/26 01:27:11;;;;;;;4.70;3.40;;;3.10;99.90;;;;;;5015696;28;20113;-77
2024/02/26 01:29:37;;;;;;;8.25;3.30;;;3.00;99.90;;;;;;5023039;28;20091;-77
2024/02/26 01:32:04;;;;;;;4.65;3.15;;;3.00;99.90;;;;;;5017550;28;20037;-77
2024/02/26 01:34:30;;;;;;;3.92;2.92;;;3.00;99.90;;;;;;5016083;28;20129;-77
2024/02/26 01:36:56;;;;;;;6.25;3.38;;;3.00;99.90;;;;;;5017783;28;20061;-77
2024/02/26 01:39:22;;;;;;;5.88;2.92;;;3.10;99.90;;;;;;5015154;28;20570;-77
2024/02/26 01:41:48;;;;;;;5.43;3.38;;;3.20;99.90;;;;;;5018552;28;20034;-77
2024/02/26 01:44:14;;;;;;;6.18;3.38;;;3.40;99.90;;;;;;5015831;28;20057;-77
2024/02/26 01:46:40;;;;;;;9.82;3.20;;;3.50;99.90;;;;;;5016908;28;20117;-77
2024/02/26 01:49:08;;;;;;;4.95;3.08;;;3.50;99.90;;;;;;5013982;28;20059;-77
2024/02/26 01:51:35;;;;;;;6.38;3.67;;;3.50;99.90;;;;;;5017503;28;20509;-77
2024/02/26 01:54:03;;;;;;;5.32;3.65;;;3.60;99.90;;;;;;5017513;28;20103;-77
2024/02/26 01:56:31;;;;;;;4.00;3.17;;;3.60;99.90;;;;;;4998674;28;20064;-77
2024/02/26 01:58:58;;;;;;;6.75;3.97;;;3.70;99.90;;;;;;5021028;28;20034;-76
2024/02/26 02:01:29;;;;;;;7.60;4.38;;;3.70;99.90;;;;;;5017338;28;20480;-77
2024/02/26 02:03:58;;;;;;;8.50;4.65;;;3.70;99.90;;;;;;5014221;28;20034;-77
2024/02/26 02:06:25;;;;;;;8.65;4.28;;;3.80;99.90;;;;;;5017968;28;20056;-77
2024/02/26 02:08:51;;;;;;;8.25;3.97;;;3.80;99.90;;;;;;5017501;28;20769;-77
2024/02/26 02:11:17;;;;;;;6.05;3.85;;;3.80;99.90;;;;;;4996091;28;20091;-77
2024/02/26 02:13:43;;;;;;;6.38;3.75;;;3.70;99.90;;;;;;5019218;28;20025;-77
2024/02/26 02:16:09;;;;;;;11.25;3.58;;;3.70;99.90;;;;;;5024938;28;20030;-78
2024/02/26 02:18:35;;;;;;;7.97;3.72;;;3.70;99.90;;;;;;5010940;28;20022;-78
2024/02/26 02:21:01;;;;;;;4.75;3.15;;;3.70;99.90;;;;;;5018169;28;20762;-78
2024/02/26 02:23:27;;;;;;;7.55;3.90;;;3.60;99.90;;;;;;5013182;28;20033;-78
2024/02/26 02:25:55;;;;;;;6.47;3.90;;;3.50;99.90;;;;;;5020260;28;20029;-78
2024/02/26 02:28:21;;;;;;;6.18;4.03;;;3.40;99.90;;;;;;5016602;28;20061;-78
2024/02/26 02:30:49;;;;;;;7.22;3.92;;;3.30;99.90;;;;;;5017484;28;20053;-78
2024/02/26 02:33:15;;;;;;;6.28;3.80;;;3.30;99.90;;;;;;5018087;28;20082;-78
2024/02/26 02:35:42;;;;;;;5.20;4.00;;;3.30;99.90;;;;;;5016356;28;20033;-78
2024/02/26 02:38:07;;;;;;;7.43;4.15;;;3.30;99.90;;;;;;5018071;28;20540;-78
2024/02/26 02:40:33;;;;;;;5.70;3.67;;;3.30;99.90;;;;;;5012739;28;20029;-78
2024/02/26 02:43:01;;;;;;;6.25;4.10;;;3.30;99.90;;;;;;5017361;28;20511;-78
2024/02/26 02:45:28;;;;;;;5.95;3.70;;;3.20;99.90;;;;;;5016221;28;20145;-78
2024/02/26 02:47:53;;;;;;;6.53;4.05;;;3.20;99.90;;;;;;5014969;28;20029;-78
2024/02/26 02:50:19;;;;;;;5.75;3.90;;;3.20;99.90;;;;;;5016798;28;20082;-78
2024/02/26 02:52:45;;;;;;;7.85;4.05;;;3.20;99.90;;;;;;5019680;28;20049;-78
2024/02/26 02:55:11;;;;;;;6.85;3.90;;;3.20;99.90;;;;;;5011637;28;20080;-78
2024/02/26 02:57:40;;;;;;;6.47;4.45;;;3.20;99.90;;;;;;5015085;28;20128;-78
2024/02/26 03:00:10;;;;;;;7.10;4.05;;;3.30;99.90;;;;;;5012819;28;20025;-79
2024/02/26 03:02:36;;;;;;;6.25;4.30;;;3.30;99.90;;;;;;5016481;28;20556;-78
2024/02/26 03:05:05;;;;;;;9.85;4.10;;;3.30;99.90;;;;;;5021033;28;20710;-78
2024/02/26 03:07:31;;;;;;;7.72;4.43;;;3.30;99.90;;;;;;5015840;28;20040;-78
2024/02/26 03:09:57;;;;;;;7.18;4.25;;;3.30;99.90;;;;;;5012741;28;20029;-78
2024/02/26 03:12:23;;;;;;;7.60;4.40;;;3.30;99.90;;;;;;5023104;28;20032;-78
2024/02/26 03:14:49;;;;;;;9.93;4.35;;;3.30;99.90;;;;;;5014938;28;20560;-78
2024/02/26 03:17:15;;;;;;;6.25;4.57;;;3.30;99.90;;;;;;5014333;28;20033;-78
2024/02/26 03:19:41;;;;;;;7.63;4.72;;;3.30;99.90;;;;;;5010414;28;20083;-78
2024/02/26 03:22:07;;;;;;;9.25;4.85;;;3.40;99.90;;;;;;5018909;28;20092;-78
2024/02/26 03:24:33;;;;;;;9.35;5.30;;;3.50;99.90;;;;;;5017814;28;20042;-78
2024/02/26 03:26:59;;;;;;;8.02;4.70;;;3.50;99.90;;;;;;5021013;28;20037;-78
2024/02/26 03:29:25;;;;;;;7.60;5.00;;;3.50;99.90;;;;;;5016190;28;20053;-78
2024/02/26 03:31:50;;;;;;;7.03;4.47;;;3.50;99.90;;;;;;5014851;28;20044;-78
2024/02/26 03:34:18;;;;;;;9.95;4.47;;;3.60;99.90;;;;;;5022439;28;20034;-78
2024/02/26 03:36:44;;;;;;;7.45;4.57;;;3.60;99.90;;;;;;5017386;28;20030;-78
2024/02/26 03:39:11;;;;;;;8.35;4.93;;;3.60;99.90;;;;;;5010699;28;20026;-79
2024/02/26 03:41:36;;;;;;;11.68;5.65;;;3.60;99.90;;;;;;5016948;28;20449;-78
2024/02/26 03:44:03;;;;;;;9.88;5.45;;;3.60;99.90;;;;;;5020802;28;20042;-78
2024/02/26 03:46:29;;;;;;;8.15;5.15;;;3.60;99.90;;;;;;5013417;28;20486;-79
2024/02/26 03:48:55;;;;;;;9.98;5.43;;;3.60;99.90;;;;;;5010238;28;20032;-78
2024/02/26 03:51:21;;;;;;;6.78;4.80;;;3.70;99.90;;;;;;5017775;28;20924;-78
2024/02/26 03:53:46;;;;;;;8.75;5.20;;;3.70;99.90;;;;;;5012719;28;20047;-78
2024/02/26 03:56:13;;;;;;;10.02;5.25;;;3.70;99.90;;;;;;5013414;28;20065;-78
2024/02/26 03:58:39;;;;;;;9.05;5.30;;;3.80;99.90;;;;;;5022926;28;20535;-78
2024/02/26 04:01:07;;;;;;;7.40;4.63;;;3.80;99.90;;;;;;5014085;28;20057;-79
2024/02/26 04:03:34;;;;;;;10.18;5.35;;;3.90;99.90;;;;;;5015178;28;20092;-79
2024/02/26 04:06:00;;;;;;;11.65;5.38;;;3.80;99.90;;;;;;5019277;28;20029;-79
2024/02/26 04:08:26;;;;;;;8.63;4.78;;;3.80;99.90;;;;;;5011568;28;20756;-78
2024/02/26 04:10:52;;;;;;;10.05;5.05;;;3.80;99.90;;;;;;5018375;28;20542;-78
2024/02/26 04:13:18;;;;;;;8.93;5.13;;;3.80;99.90;;;;;;5018871;28;20034;-78
2024/02/26 04:15:44;;;;;;;7.00;4.38;;;3.80;99.90;;;;;;5014119;28;20064;-78
2024/02/26 04:18:10;;;;;;;6.93;5.15;;;3.80;99.90;;;;;;5015571;28;20090;-78
2024/02/26 04:20:36;;;;;;;6.28;4.90;;;3.80;99.90;;;;;;5013031;28;20428;-79
2024/02/26 04:23:03;;;;;;;7.95;4.45;;;3.70;99.90;;;;;;5015893;28;20426;-79
2024/02/26 04:25:29;;;;;;;7.88;5.15;;;3.70;99.90;;;;;;5009121;28;20671;-79
2024/02/26 04:27:55;;;;;;;6.85;4.53;;;3.70;99.90;;;;;;5017118;28;20033;-79
2024/02/26 04:30:20;;;;;;;8.18;4.47;;;3.70;99.90;;;;;;5014817;28;20377;-79
2024/02/26 04:32:46;;;;;;;8.07;4.80;;;3.70;99.90;;;;;;5017442;28;20033;-79
2024/02/26 04:35:12;;;;;;;7.43;4.72;;;3.70;99.90;;;;;;5016460;28;20911;-78
2024/02/26 04:37:38;;;;;;;6.82;4.30;;;3.70;99.90;;;;;;5012668;28;20655;-79
2024/02/26 04:40:04;;;;;;;6.97;4.70;;;3.70;99.90;;;;;;5028622;28;20021;-79
2024/02/26 04:42:30;;;;;;;5.95;4.78;;;3.60;99.90;;;;;;5019824;28;20132;-79
2024/02/26 04:44:56;;;;;;;7.82;4.43;;;3.60;99.90;;;;;;5013412;28;20492;-79
2024/02/26 04:47:22;;;;;;;7.22;4.32;;;3.60;99.90;;;;;;5016165;28;20026;-79
2024/02/26 04:49:50;;;;;;;6.88;4.25;;;3.60;99.90;;;;;;5020857;28;20116;-79
2024/02/26 04:52:16;;;;;;;7.47;4.35;;;3.60;99.90;;;;;;5015464;28;20036;-79
2024/02/26 04:54:42;;;;;;;7.40;4.38;;;3.60;99.90;;;;;;5014153;28;20030;-79
2024/02/26 04:57:08;;;;;;;8.88;4.15;;;3.70;99.90;;;;;;5016492;28;20038;-79
2024/02/26 04:59:34;;;;;;;6.95;4.07;;;3.70;99.90;;;;;;5016067;28;20203;-79
2024/02/26 05:01:59;;;;;;;7.95;4.82;;;3.70;99.90;;;;;;5013500;28;20076;-79
2024/02/26 05:04:25;;;;;;;9.10;4.78;;;3.70;99.90;;;;;;5011824;28;20113;-79
2024/02/26 05:06:51;;;;;;;6.78;3.97;;;3.70;99.90;;;;;;5011161;28;20048;-79
2024/02/26 05:09:17;;;;;;;6.82;3.90;;;3.70;99.90;;;;;;5013898;28;20675;-79
2024/02/26 05:11:43;;;;;;;5.22;4.18;;;3.60;99.90;;;;;;5017756;28;20079;-79
2024/02/26 05:14:09;;;;;;;7.20;3.83;;;3.50;99.90;;;;;;5014794;28;20033;-79
2024/02/26 05:16:35;;;;;;;6.97;4.05;;;3.50;99.90;;;;;;5018470;28;20034;-79
2024/02/26 05:19:01;;;;;;;5.72;3.90;;;3.40;99.90;;;;;;5017274;28;20033;-79
2024/02/26 05:21:27;;;;;;;8.63;4.47;;;3.40;99.90;;;;;;5011447;28;20022;-79
2024/02/26 05:23:53;;;;;;;7.47;4.28;;;3.40;99.90;;;;;;5010919;28;20033;-79
2024/02/26 05:26:22;;;;;;;7.35;4.57;;;3.40;99.90;;;;;;5021509;28;20037;-79
2024/02/26 05:28:49;;;;;;;7.78;4.60;;;3.40;99.90;;;;;;5009396;28;20073;-79
2024/02/26 05:31:16;;;;;;;6.40;4.28;;;3.40;99.90;;;;;;5014193;28;20041;-79
2024/02/26 05:33:41;;;;;;;7.28;4.03;;;3.40;99.90;;;;;;5011190;28;20049;-79
2024/02/26 05:36:07;;;;;;;8.85;4.15;;;3.40;99.90;;;;;;5009236;28;20150;-79
2024/02/26 05:38:33;;;;;;;7.13;4.30;;;3.30;99.90;;;;;;5012057;28;20079;-79
2024/02/26 05:40:59;;;;;;;6.93;4.35;;;3.40;99.90;;;;;;5015240;28;20033;-79
2024/02/26 05:43:28;;;;;;;6.53;4.30;;;3.30;99.90;;;;;;5012600;28;20582;-80
2024/02/26 05:45:54;;;;;;;7.85;4.68;;;3.30;99.90;;;;;;5029039;28;20246;-79
2024/02/26 05:48:20;;;;;;;7.15;4.68;;;3.20;99.90;;;;;;5017200;28;20757;-79
2024/02/26 05:50:48;;;;;;;7.43;4.43;;;3.20;99.90;;;;;;5010990;28;20140;-79
2024/02/26 05:53:14;;;;;;;6.55;4.55;;;3.20;99.90;;;;;;5012477;28;20038;-79
2024/02/26 05:55:40;;;;;;;6.72;4.45;;;3.10;99.90;;;;;;5020362;28;20033;-79
2024/02/26 05:58:06;;;;;;;5.63;3.90;;;3.10;99.90;;;;;;5014852;28;20057;-77
2024/02/26 06:00:32;;;;;;;6.03;3.83;;;3.10;99.90;;;;;;5018613;28;20054;-79
2024/02/26 06:02:58;;;;;;;10.50;5.47;;;3.10;99.90;;;;;;5020842;28;20112;-79
2024/02/26 06:05:23;;;;;;;10.27;5.00;;;3.10;99.90;;;;;;5015685;28;20294;-79
2024/02/26 06:07:49;;;;;;;10.90;5.18;;;3.10;99.90;;;;;;5021143;28;20040;-78
2024/02/26 06:10:15;;;;;;;10.43;5.93;;;3.00;99.90;;;;;;5018352;28;20060;-78
2024/02/26 06:12:41;;;;;;;9.02;5.65;;;3.10;99.90;;;;;;5016786;28;20041;-78
2024/02/26 06:15:07;;;;;;;9.63;5.45;;;3.00;99.90;;;;;;5011931;28;20742;-78
2024/02/26 06:17:33;;;;;;;8.98;5.18;;;3.10;99.90;;;;;;5016945;28;20382;-78
2024/02/26 06:20:00;;;;;;;9.63;5.38;;;3.10;99.90;;;;;;5017737;28;20026;-78
2024/02/26 06:22:26;;;;;;;7.50;5.47;;;3.10;99.90;;;;;;5015052;28;20025;-79
2024/02/26 06:24:52;;;;;;;9.63;5.35;;;3.00;99.90;;;;;;5018881;28;20777;-78
2024/02/26 06:27:18;;;;;;;10.98;5.53;;;3.10;99.90;;;;;;5013369;28;20064;-79
2024/02/26 06:29:43;;;;;;;7.85;4.72;;;3.10;99.90;;;;;;5016125;28;20532;-78
2024/02/26 06:32:09;;;;;;;8.73;4.97;;;3.20;99.90;;;;;;5017911;28;20065;-77
2024/02/26 06:34:35;;;;;;;9.23;5.00;;;3.20;99.90;;;;;;5013312;28;20026;-78
2024/02/26 06:37:03;;;;;;;10.18;5.65;;;3.30;99.90;;;;;;5020301;28;20035;-79
2024/02/26 06:39:29;;;;;;;9.88;5.53;;;3.30;99.90;;;;;;5017473;28;20045;-78
2024/02/26 06:42:00;;;;;;;8.35;5.18;;;3.30;99.90;;;;;;5009136;28;20672;-78
2024/02/26 06:44:31;;;;;;;7.45;4.57;;;3.40;99.90;;;;;;5019612;28;20034;-79
2024/02/26 06:46:59;;;;;;;8.63;5.15;;;3.40;99.90;;;;;;5017174;28;20038;-78
2024/02/26 06:49:25;;;;;;;7.45;4.60;;;3.40;99.90;;;;;;5012216;28;20429;-79
2024/02/26 06:51:51;;;;;;;8.02;4.30;;;3.50;99.90;;;;;;5012766;28;20038;-78
2024/02/26 06:54:16;;;;;;;8.98;4.32;;;3.60;99.90;;;;;;5019768;28;20047;-78
2024/02/26 06:56:42;;;;;;;5.40;4.22;;;3.60;99.90;;;;;;5015367;28;20037;-79
2024/02/26 06:59:08;;;;;;;8.98;4.97;;;3.60;99.90;;;;;;5014209;28;20508;-78
2024/02/26 07:01:34;;;;;;;8.13;5.43;;;3.70;99.90;;;;;;5013001;28;20049;-79
2024/02/26 07:04:00;;;;;;;14.02;7.38;;;3.80;99.90;;;;;;5014302;28;20033;-78
2024/02/26 07:06:27;;;;;;;14.15;7.68;;;3.80;99.90;;;;;;5018535;28;20022;-78
2024/02/26 07:08:53;;;;;;;18.10;10.65;;;3.90;99.90;;;;;;5012478;28;20041;-78
2024/02/26 07:11:19;;;;;;;12.68;6.85;;;4.00;99.90;;;;;;5011516;28;20603;-78
2024/02/26 07:13:46;;;;;;;11.75;7.05;;;4.10;99.90;;;;;;5015341;28;20126;-79
2024/02/26 07:16:12;;;;;;;10.48;5.90;;;4.20;99.90;;;;;;5015559;28;20044;-79
2024/02/26 07:18:39;;;;;;;11.15;5.40;;;4.20;99.90;;;;;;5013087;28;20029;-79
2024/02/26 07:21:05;;;;;;;9.45;4.97;;;4.30;99.90;;;;;;5014414;28;20034;-78
2024/02/26 07:23:31;;;;;;;10.27;5.20;;;4.40;99.90;;;;;;4993986;28;20521;-78
2024/02/26 07:25:58;;;;;;;7.55;4.50;;;4.50;99.90;;;;;;5007862;28;20113;-78
2024/02/26 07:28:24;;;;;;;9.90;4.88;;;4.60;99.90;;;;;;5012047;28;20668;-78
2024/02/26 07:30:51;;;;;;;9.50;4.93;;;4.70;99.90;;;;;;5011751;28;20034;-77
2024/02/26 07:33:16;;;;;;;9.93;5.32;;;4.90;99.90;;;;;;5013630;28;20034;-77
2024/02/26 07:35:42;;;;;;;13.30;6.13;;;5.00;99.90;;;;;;5013635;28;20449;-76
2024/02/26 07:38:08;;;;;;;8.73;6.10;;;5.20;99.90;;;;;;5012403;28;20034;-77
2024/02/26 07:40:34;;;;;;;13.45;6.68;;;5.40;99.90;;;;;;5014195;28;20103;-76
2024/02/26 07:43:00;;;;;;;12.40;6.43;;;5.50;99.90;;;;;;5011625;28;20101;-75
2024/02/26 07:45:26;;;;;;;11.63;6.65;;;5.70;99.90;;;;;;5016012;28;20549;-76
2024/02/26 07:47:52;;;;;;;11.48;7.32;;;5.80;99.90;;;;;;5016000;28;20522;-75
2024/02/26 07:50:18;;;;;;;10.27;6.88;;;6.00;99.90;;;;;;5010545;28;20046;-79
2024/02/26 07:52:45;;;;;;;11.35;7.38;;;6.20;99.90;;;;;;5013851;28;20497;-77
2024/02/26 07:55:11;;;;;;;15.43;7.20;;;6.30;99.90;;;;;;5014728;28;20065;-78
2024/02/26 07:57:37;;;;;;;15.32;7.18;;;6.40;99.90;;;;;;5008614;28;20817;-77
2024/02/26 08:00:04;;;;;;;14.77;8.50;;;6.60;99.90;;;;;;5011539;28;20037;-77
2024/02/26 08:02:31;;;;;;;15.65;8.65;;;6.70;99.90;;;;;;5009902;28;20065;-75
2024/02/26 08:04:57;;;;;;;14.60;8.30;;;6.80;99.90;;;;;;5014124;28;20543;-73
2024/02/26 08:07:23;;;;;;;15.60;9.75;;;7.00;99.90;;;;;;5014828;28;20808;-75
2024/02/26 08:09:49;;;;;;;20.35;9.40;;;7.10;99.90;;;;;;5015571;28;20041;-73
2024/02/26 08:12:15;;;;;;;15.70;9.30;;;7.20;99.90;;;;;;5016232;28;20033;-74
2024/02/26 08:14:41;;;;;;;19.25;9.93;;;7.50;99.90;;;;;;5015135;28;20029;-74
2024/02/26 08:17:08;;;;;;;17.35;10.25;;;7.80;99.90;;;;;;5010496;28;20033;-74
2024/02/26 08:19:35;;;;;;;15.63;10.45;;;7.90;99.90;;;;;;5012817;28;20029;-74
2024/02/26 08:22:02;;;;;;;16.70;9.82;;;8.00;99.90;;;;;;5008100;28;20025;-73
2024/02/26 08:24:28;;;;;;;18.08;9.15;;;8.10;99.90;;;;;;5013261;28;20029;-73
2024/02/26 08:26:54;;;;;;;19.58;9.45;;;8.30;99.90;;;;;;5013036;28;20041;-74
2024/02/26 08:29:20;;;;;;;18.75;9.93;;;8.50;99.90;;;;;;5011154;28;20040;-74
2024/02/26 08:31:46;;;;;;;16.35;9.40;;;8.50;99.90;;;;;;5011877;28;20036;-75
2024/02/26 08:34:12;;;;;;;19.58;9.75;;;8.50;99.90;;;;;;5011857;28;20037;-76
2024/02/26 08:36:37;;;;;;;19.13;10.38;;;8.60;99.90;;;;;;5012096;28;20488;-77
2024/02/26 08:39:03;;;;;;;15.57;9.50;;;8.60;99.90;;;;;;5009675;28;20109;-76
2024/02/26 08:41:29;;;;;;;16.77;10.02;;;8.80;99.90;;;;;;5007825;28;20091;-76
2024/02/26 08:43:55;;;;;;;17.42;9.30;;;8.90;99.90;;;;;;5018941;28;20073;-76
2024/02/26 08:46:22;;;;;;;14.40;9.70;;;8.90;99.90;;;;;;5009415;28;20032;-73
2024/02/26 08:48:48;;;;;;;16.52;9.63;;;8.80;99.90;;;;;;5006151;28;20129;-74
2024/02/26 08:51:13;;;;;;;17.08;9.52;;;9.00;99.90;;;;;;5011726;28;20030;-79
2024/02/26 08:53:39;;;;;;;16.70;9.35;;;9.30;99.90;;;;;;5012263;28;20061;-78
2024/02/26 08:56:05;;;;;;;16.77;10.57;;;9.60;99.90;;;;;;5015153;28;20026;-76
2024/02/26 08:58:31;;;;;;;20.17;9.82;;;9.80;99.90;;;;;;5013812;28;20018;-74
2024/02/26 09:00:57;;;;;;;17.38;9.38;;;9.80;99.90;;;;;;5010338;28;20026;-75
2024/02/26 09:03:23;;;;;;;17.88;8.82;;;10.00;99.90;;;;;;5007954;28;20405;-75
2024/02/26 09:05:49;;;;;;;18.35;9.30;;;10.10;99.90;;;;;;5013953;28;20033;-75
2024/02/26 09:08:15;;;;;;;16.52;9.32;;;10.20;99.90;;;;;;5015902;28;20029;-75
2024/02/26 09:10:42;;;;;;;16.13;9.18;;;10.30;99.90;;;;;;5014970;28;20049;-74
2024/02/26 09:13:08;;;;;;;14.82;8.75;;;10.50;99.90;;;;;;5012257;28;20029;-74
2024/02/26 09:15:34;;;;;;;14.55;9.23;;;10.60;99.90;;;;;;5009462;28;20044;-74
2024/02/26 09:17:59;;;;;;;15.52;9.30;;;10.80;99.90;;;;;;5007733;28;20606;-74
2024/02/26 09:20:25;;;;;;;13.15;9.23;;;11.00;99.90;;;;;;5014205;28;20029;-74
2024/02/26 09:22:51;;;;;;;14.60;8.90;;;11.10;99.90;;;;;;5014482;28;20026;-79
2024/02/26 09:25:18;;;;;;;21.17;10.20;;;11.20;99.90;;;;;;5011264;28;20065;-75
2024/02/26 09:27:44;;;;;;;14.10;8.55;;;11.30;99.90;;;;;;5015206;28;20025;-79
2024/02/26 09:30:11;;;;;;;15.57;8.35;;;11.60;99.90;;;;;;5016631;28;20116;-75
2024/02/26 09:32:38;;;;;;;17.10;9.07;;;11.80;99.90;;;;;;5013895;28;20029;-77
2024/02/26 09:35:08;;;;;;;13.13;7.60;;;12.00;99.90;;;;;;5013680;28;20034;-77
2024/02/26 09:37:36;;;;;;;13.68;8.93;;;12.00;99.90;;;;;;5014415;28;20037;-78
2024/02/26 09:40:03;;;;;;;14.02;8.80;;;12.00;99.90;;;;;;5009454;28;20026;-77
2024/02/26 09:42:34;;;;;;;15.18;8.85;;;12.10;99.90;;;;;;5030880;28;20033;-77
2024/02/26 09:45:07;;;;;;;14.10;8.80;;;12.20;99.90;;;;;;5012588;28;20056;-77
2024/02/26 09:47:34;;;;;;;13.48;8.20;;;12.50;99.90;;;;;;5017266;28;20489;-77
2024/02/26 09:50:02;;;;;;;11.10;8.20;;;12.70;99.00;;;;;;5016784;28;20096;-75
2024/02/26 09:52:30;;;;;;;15.05;8.73;;;13.10;97.90;;;;;;5017400;28;20029;-78
2024/02/26 09:54:56;;;;;;;14.48;8.00;;;13.40;97.60;;;;;;5015625;28;20034;-75
2024/02/26 09:57:24;;;;;;;11.60;7.72;;;13.70;96.30;;;;;;5030436;28;20036;-76
2024/02/26 09:59:53;;;;;;;15.63;8.35;;;13.70;94.70;;;;;;5014560;28;20044;-75
2024/02/26 10:02:21;;;;;;;11.50;6.70;;;13.70;94.60;;;;;;5016965;28;20025;-75
2024/02/26 10:04:50;;;;;;;11.50;7.45;;;13.80;94.40;;;;;;5013674;28;20034;-77
2024/02/26 10:07:16;;;;;;;12.63;7.45;;;13.70;94.10;;;;;;5016373;28;20052;-76
2024/02/26 10:09:42;;;;;;;13.75;7.57;;;13.70;94.20;;;;;;5018681;28;20771;-77
2024/02/26 10:12:15;;;;;;;12.75;7.15;;;13.80;93.80;;;;;;5016093;28;20044;-76
2024/02/26 10:14:41;;;;;;;12.15;7.38;;;13.80;93.50;;;;;;5015669;28;20034;-77
2024/02/26 10:17:10;;;;;;;13.43;7.07;;;13.90;92.90;;;;;;5008587;28;20556;-75
2024/02/26 10:19:36;;;;;;;12.60;6.82;;;14.10;93.20;;;;;;5012826;28;20112;-77
2024/02/26 10:22:04;;;;;;;10.20;6.68;;;14.40;92.10;;;;;;5011696;28;20022;-75
2024/02/26 10:24:30;;;;;;;10.95;6.57;;;14.70;91.70;;;;;;5018002;28;20029;-74
2024/02/26 10:26:56;;;;;;;10.52;6.63;;;15.20;91.00;;;;;;5018222;28;20551;-76
2024/02/26 10:29:24;;;;;;;12.85;7.45;;;15.50;89.40;;;;;;5012998;28;20038;-76
2024/02/26 10:31:54;;;;;;;13.13;6.45;;;15.80;87.10;;;;;;5012104;28;20054;-76
2024/02/26 10:34:23;;;;;;;8.45;6.50;;;16.30;86.10;;;;;;5018399;28;20454;-77
2024/02/26 10:36:49;;;;;;;9.00;5.97;;;16.70;81.40;;;;;;5014669;28;20675;-77
2024/02/26 10:39:16;;;;;;;10.52;6.72;;;17.00;79.00;;;;;;5017112;28;20215;-77
2024/02/26 10:41:43;;;;;;;10.27;6.35;;;17.60;77.10;;;;;;5011695;28;20017;-77
2024/02/26 10:44:12;;;;;;;10.13;6.15;;;18.00;75.30;;;;;;5014248;28;20044;-77
2024/02/26 10:46:41;;;;;;;9.77;5.85;;;18.30;72.20;;;;;;5012407;28;20038;-77
2024/02/26 10:49:15;;;;;;;10.52;5.80;;;18.40;70.30;;;;;;5014883;28;20083;-78
2024/02/26 10:51:44;;;;;;;9.10;5.60;;;18.10;69.20;;;;;;5011862;28;20044;-78
2024/02/26 10:54:15;;;;;;;10.30;5.72;;;17.80;69.70;;;;;;5007140;28;20335;-75
2024/02/26 10:56:43;;;;;;;11.45;5.75;;;17.70;69.80;;;;;;5015148;28;20132;-76
2024/02/26 10:59:12;;;;;;;9.82;5.25;;;17.80;70.30;;;;;;5013448;28;20030;-76
2024/02/26 11:01:41;;;;;;;8.25;5.35;;;17.70;69.00;;;;;;5011658;28;20039;-75
2024/02/26 11:04:08;;;;;;;10.30;5.75;;;17.50;69.10;;;;;;5015940;28;20053;-77
2024/02/26 11:06:35;;;;;;;7.75;4.72;;;17.20;69.30;;;;;;5014172;28;20068;-76
2024/02/26 11:09:02;;;;;;;8.43;5.55;;;16.90;70.50;;;;;;5010738;28;20044;-75
2024/02/26 11:11:35;;;;;;;9.43;5.45;;;16.30;71.30;;;;;;5015814;28;20038;-75
2024/02/26 11:14:03;;;;;;;8.00;5.40;;;15.90;72.60;;;;;;5009355;28;20036;-75
2024/02/26 11:16:29;;;;;;;9.98;5.50;;;15.80;72.70;;;;;;5017444;28;20087;-76
2024/02/26 11:18:57;;;;;;;12.60;5.28;;;15.50;73.60;;;;;;5013999;28;20420;-76
2024/02/26 11:21:28;;;;;;;9.48;4.65;;;15.20;74.40;;;;;;5014015;28;20054;-76
2024/02/26 11:23:54;;;;;;;8.88;5.10;;;15.10;75.50;;;;;;5015328;28;20033;-76
2024/02/26 11:26:22;;;;;;;6.90;4.90;;;14.90;76.00;;;;;;5016112;28;20037;-77
2024/02/26 11:28:49;;;;;;;9.15;5.00;;;14.70;76.80;;;;;;5016215;28;20034;-78
2024/02/26 11:31:15;;;;;;;11.30;4.72;;;14.60;77.50;;;;;;5010405;28;20042;-78
2024/02/26 11:33:41;;;;;;;6.63;4.63;;;14.40;77.40;;;;;;5015298;28;20791;-76
2024/02/26 11:36:11;;;;;;;9.07;4.65;;;14.20;78.60;;;;;;5013554;28;20033;-76
2024/02/26 11:38:37;;;;;;;6.72;4.28;;;14.20;78.80;;;;;;5017398;28;20116;-76
2024/02/26 11:41:05;;;;;;;8.75;5.05;;;14.20;79.30;;;;;;5011226;28;20825;-78
2024/02/26 11:43:51;;;;;;;7.38;3.90;;;14.20;78.90;;;;;;5012517;28;20033;-78
2024/02/26 11:46:30;;;;;;;4.97;3.55;;;14.10;78.50;;;;;;5014767;28;20045;-78
2024/02/26 11:49:17;;;;;;;7.10;4.10;;;14.10;77.30;;;;;;5011832;28;20061;-78
2024/02/26 11:51:43;;;;;;;5.73;3.80;;;14.00;78.70;;;;;;5011535;28;20034;-74
2024/02/26 11:54:09;;;;;;;8.27;4.88;;;14.00;79.80;;;;;;5013348;28;20037;-74
2024/02/26 11:56:40;;;;;;;9.68;5.82;;;14.10;80.40;;;;;;5020376;28;20107;-73
2024/02/26 11:59:10;;;;;;;8.27;4.80;;;14.10;81.70;;;;;;5011046;28;20112;-74
2024/02/26 12:01:44;;;;;;;11.15;5.32;;;14.30;82.60;;;;;;5013315;28;20520;-74
2024/02/26 12:04:21;;;;;;;9.63;5.97;;;14.40;82.00;;;;;;5013815;28;20026;-75
2024/02/26 12:06:51;;;;;;;10.30;6.13;;;14.60;83.80;;;;;;5006499;28;20194;-74
2024/02/26 12:09:36;;;;;;;14.48;6.43;;;14.80;82.80;;;;;;5014429;28;20538;-74
2024/02/26 12:12:07;;;;;;;10.68;6.45;;;14.90;81.10;;;;;;5015248;28;20044;-73
2024/02/26 12:14:34;;;;;;;10.77;6.53;;;15.00;81.20;;;;;;5011613;28;20109;-73
2024/02/26 12:17:01;;;;;;;11.63;6.07;;;15.10;81.60;;;;;;5016502;28;20124;-74
2024/02/26 12:19:27;;;;;;;14.07;6.53;;;15.10;81.60;;;;;;5015436;28;20045;-74
2024/02/26 12:21:56;;;;;;;9.55;5.88;;;15.00;80.30;;;;;;5013107;28;20057;-73
2024/02/26 12:24:22;;;;;;;12.65;5.75;;;15.00;81.10;;;;;;5015120;28;20040;-74
2024/02/26 12:26:48;;;;;;;8.30;5.22;;;14.90;79.10;;;;;;5016678;28;20029;-74
2024/02/26 12:29:14;;;;;;;11.02;5.55;;;14.80;80.30;;;;;;5015247;28;20055;-73
2024/02/26 12:31:41;;;;;;;9.18;4.80;;;14.80;81.40;;;;;;5011784;28;20456;-74
2024/02/26 12:34:09;;;;;;;9.90;5.50;;;14.80;80.00;;;;;;5015645;28;20053;-72
2024/02/26 12:36:36;;;;;;;10.20;5.65;;;14.80;78.60;;;;;;5009555;28;20078;-73
2024/02/26 12:39:09;;;;;;;7.80;5.22;;;14.60;78.80;;;;;;5011702;28;20038;-73
2024/02/26 12:41:35;;;;;;;8.13;4.47;;;14.60;79.80;;;;;;5012900;28;20082;-71
2024/02/26 12:44:01;;;;;;;10.20;5.30;;;14.60;79.00;;;;;;5014586;28;20025;-71
2024/02/26 12:46:27;;;;;;;8.25;5.25;;;14.50;79.30;;;;;;5013244;28;20041;-72
2024/02/26 12:48:58;;;;;;;8.98;4.22;;;14.50;79.50;;;;;;5017578;28;20041;-72